createdAt,value
2022-12-22T00:02:37.281Z,10.95
2022-12-22T00:05:36.030Z,10.60
2022-12-22T00:08:24.668Z,10.10
2022-12-22T00:11:11.667Z,14.02
2022-12-22T00:14:00.177Z,14.77
2022-12-22T00:16:52.173Z,22.27
2022-12-22T00:19:38.289Z,14.10
2022-12-22T00:22:38.462Z,12.68
2022-12-22T00:25:24.564Z,18.85
2022-12-22T00:28:10.174Z,16.98
2022-12-22T00:30:56.647Z,17.00
2022-12-22T00:33:42.789Z,16.92
2022-12-22T00:36:30.664Z,16.23
2022-12-22T00:39:16.274Z,18.67
2022-12-22T00:42:01.756Z,16.50
2022-12-22T00:44:47.042Z,16.48
2022-12-22T00:47:44.691Z,15.38
2022-12-22T00:50:31.901Z,17.08
2022-12-22T00:53:18.892Z,14.85
2022-12-22T00:56:04.871Z,16.73
2022-12-22T00:58:50.719Z,16.52
2022-12-22T01:01:36.027Z,14.50
2022-12-22T01:04:22.009Z,12.98
2022-12-22T01:07:07.562Z,11.88
2022-12-22T01:09:54.308Z,13.82
2022-12-22T01:12:42.776Z,10.38
2022-12-22T01:18:16.157Z,10.80
2022-12-22T01:21:01.920Z,10.68
2022-12-22T01:23:47.564Z,7.55
2022-12-22T01:26:33.554Z,9.38
2022-12-22T01:29:19.052Z,11.48
2022-12-22T01:32:04.929Z,15.18
2022-12-22T01:34:50.397Z,13.07
2022-12-22T01:37:35.808Z,8.02
2022-12-22T01:40:21.378Z,10.85
2022-12-22T01:43:06.741Z,12.00
2022-12-22T01:45:55.718Z,13.15
2022-12-22T01:48:46.803Z,9.00
2022-12-22T01:51:38.222Z,13.85
2022-12-22T01:54:24.854Z,11.55
2022-12-22T01:57:10.387Z,14.30
2022-12-22T01:59:55.915Z,12.23
2022-12-22T02:02:43.759Z,11.15
2022-12-22T02:05:31.877Z,11.30
2022-12-22T02:08:17.405Z,10.75
2022-12-22T02:11:41.519Z,9.45
2022-12-22T02:15:05.525Z,10.38
2022-12-22T02:18:15.007Z,8.50
2022-12-22T02:21:07.885Z,13.45
2022-12-22T02:24:05.484Z,9.13
2022-12-22T02:26:56.062Z,10.50
2022-12-22T02:29:47.317Z,8.43
2022-12-22T02:32:32.737Z,9.07
2022-12-22T02:35:18.618Z,5.50
2022-12-22T02:38:04.074Z,9.68
2022-12-22T02:41:14.587Z,12.05
2022-12-22T02:44:37.981Z,16.35
2022-12-22T02:47:51.230Z,11.27
2022-12-22T02:50:40.164Z,13.65
2022-12-22T02:53:28.168Z,13.13
2022-12-22T02:56:20.971Z,10.60
2022-12-22T02:59:06.675Z,13.35
2022-12-22T03:01:52.622Z,8.75
2022-12-22T03:04:38.434Z,13.30
2022-12-22T03:07:23.860Z,10.10
2022-12-22T03:10:09.424Z,11.77
2022-12-22T03:12:54.966Z,12.07
2022-12-22T03:15:40.808Z,8.85
2022-12-22T03:18:29.446Z,13.48
2022-12-22T03:24:01.086Z,11.68
2022-12-22T03:26:28.989Z,13.70
2022-12-22T03:28:56.172Z,9.63
2022-12-22T03:31:23.139Z,13.52
2022-12-22T03:33:50.074Z,9.90
2022-12-22T03:36:17.248Z,13.35
2022-12-22T03:38:44.224Z,11.38
2022-12-22T03:41:31.202Z,12.63
2022-12-22T03:44:16.597Z,18.08
2022-12-22T03:46:43.655Z,16.02
2022-12-22T03:49:10.958Z,10.25
2022-12-22T03:51:44.896Z,11.25
2022-12-22T03:54:17.594Z,12.98
2022-12-22T03:56:45.585Z,12.02
2022-12-22T04:01:43.515Z,12.88
2022-12-22T04:04:12.280Z,11.05
2022-12-22T04:06:39.780Z,10.43
2022-12-22T04:09:07.529Z,11.38
2022-12-22T04:11:53.516Z,12.57
2022-12-22T04:14:21.689Z,12.63
2022-12-22T04:16:49.220Z,14.65
2022-12-22T04:19:16.640Z,14.20
2022-12-22T04:21:44.011Z,12.07
2022-12-22T04:24:14.635Z,12.57
2022-12-22T04:26:41.646Z,12.85
2022-12-22T04:29:08.756Z,10.52
2022-12-22T04:31:35.848Z,11.63
2022-12-22T04:34:02.865Z,11.35
2022-12-22T04:36:29.807Z,10.57
2022-12-22T04:38:56.777Z,8.60
2022-12-22T04:41:23.813Z,10.90
2022-12-22T04:43:50.754Z,13.50
2022-12-22T04:46:17.754Z,10.32
2022-12-22T04:48:44.846Z,11.25
2022-12-22T04:51:11.807Z,9.90
2022-12-22T04:53:38.779Z,6.68
2022-12-22T04:56:07.658Z,9.65
2022-12-22T04:58:35.038Z,7.03
2022-12-22T05:01:14.094Z,10.75
2022-12-22T05:03:41.228Z,6.53
2022-12-22T05:06:08.891Z,7.38
2022-12-22T05:08:36.189Z,7.00
2022-12-22T05:11:03.250Z,7.88
2022-12-22T05:13:31.132Z,6.50
2022-12-22T05:16:10.689Z,9.43
2022-12-22T05:18:39.089Z,8.30
2022-12-22T05:21:19.442Z,6.22
2022-12-22T05:23:46.625Z,9.30
2022-12-22T05:26:14.994Z,8.40
2022-12-22T05:28:42.868Z,13.48
2022-12-22T05:31:13.997Z,11.57
2022-12-22T05:33:41.016Z,11.40
2022-12-22T05:36:08.293Z,10.95
2022-12-22T05:38:35.403Z,11.77
2022-12-22T05:41:04.539Z,13.43
2022-12-22T05:43:33.136Z,10.05
2022-12-22T05:46:08.627Z,13.15
2022-12-22T05:48:38.975Z,11.85
2022-12-22T05:51:08.574Z,15.27
2022-12-22T05:53:35.987Z,13.18
2022-12-22T05:56:03.033Z,13.38
2022-12-22T05:58:30.138Z,14.70
2022-12-22T06:00:58.356Z,12.68
2022-12-22T06:03:26.468Z,11.52
2022-12-22T06:05:53.825Z,12.05
2022-12-22T06:08:20.877Z,16.20
2022-12-22T06:10:47.821Z,12.60
2022-12-22T06:13:14.816Z,14.02
2022-12-22T06:15:41.857Z,14.15
2022-12-22T06:18:08.853Z,11.90
2022-12-22T06:20:35.862Z,11.63
2022-12-22T06:23:02.842Z,14.10
2022-12-22T06:25:29.820Z,11.88
2022-12-22T06:27:56.850Z,13.38
2022-12-22T06:30:31.014Z,10.45
2022-12-22T06:33:00.848Z,11.20
2022-12-22T06:35:28.143Z,10.20
2022-12-22T06:37:55.144Z,12.10
2022-12-22T06:40:22.350Z,9.38
2022-12-22T06:43:09.127Z,10.90
2022-12-22T06:45:38.685Z,12.40
2022-12-22T06:48:06.911Z,10.40
2022-12-22T06:50:34.381Z,9.63
2022-12-22T06:53:01.766Z,11.98
2022-12-22T06:55:28.738Z,10.38
2022-12-22T06:57:55.674Z,10.25
2022-12-22T07:00:22.834Z,9.45
2022-12-22T07:02:50.079Z,10.57
2022-12-22T07:05:17.435Z,9.80
2022-12-22T07:07:44.494Z,14.43
2022-12-22T07:10:12.413Z,10.80
2022-12-22T07:12:39.419Z,9.10
2022-12-22T07:15:06.976Z,9.82
2022-12-22T07:17:34.002Z,8.77
2022-12-22T07:20:00.989Z,9.50
2022-12-22T07:22:30.838Z,10.93
2022-12-22T07:24:58.758Z,13.57
2022-12-22T07:27:25.982Z,9.68
2022-12-22T07:29:53.014Z,11.90
2022-12-22T07:32:20.009Z,9.95
2022-12-22T07:34:47.078Z,8.98
2022-12-22T07:37:14.215Z,10.65
2022-12-22T07:39:41.299Z,12.48
2022-12-22T07:42:30.483Z,9.70
2022-12-22T07:44:57.426Z,8.55
2022-12-22T07:47:27.266Z,10.00
2022-12-22T07:50:15.520Z,12.05
2022-12-22T07:52:42.538Z,12.48
2022-12-22T07:55:09.670Z,11.77
2022-12-22T07:57:36.630Z,13.48
2022-12-22T08:00:05.027Z,12.10
2022-12-22T08:02:39.681Z,11.25
2022-12-22T08:05:08.035Z,8.93
2022-12-22T08:07:35.227Z,10.10
2022-12-22T08:10:02.334Z,7.68
2022-12-22T08:12:29.879Z,7.90
2022-12-22T08:14:57.089Z,6.88
2022-12-22T08:17:24.112Z,6.35
2022-12-22T08:19:51.053Z,7.97
2022-12-22T08:22:18.337Z,5.93
2022-12-22T08:24:45.295Z,5.85
2022-12-22T08:27:18.293Z,5.93
2022-12-22T08:29:53.920Z,6.38
2022-12-22T08:32:21.174Z,5.05
2022-12-22T08:34:50.871Z,5.18
2022-12-22T08:37:20.897Z,5.13
2022-12-22T08:39:54.899Z,5.13
2022-12-22T08:42:23.540Z,5.13
2022-12-22T08:47:21.687Z,3.85
2022-12-22T08:49:49.688Z,3.80
2022-12-22T08:52:19.381Z,3.65
2022-12-22T08:54:46.984Z,5.40
2022-12-22T08:57:13.989Z,3.88
2022-12-22T08:59:41.025Z,3.80
2022-12-22T09:02:08.213Z,4.00
2022-12-22T09:04:35.556Z,4.03
2022-12-22T09:07:02.771Z,3.78
2022-12-22T09:09:34.433Z,3.08
2022-12-22T09:12:02.963Z,3.25
2022-12-22T09:14:30.733Z,3.08
2022-12-22T09:16:57.832Z,3.73
2022-12-22T09:19:25.076Z,3.15
2022-12-22T09:21:52.071Z,3.47
2022-12-22T09:24:19.448Z,5.93
2022-12-22T09:26:46.943Z,3.58
2022-12-22T09:29:15.779Z,3.95
2022-12-22T09:31:43.341Z,3.75
2022-12-22T09:34:16.840Z,3.90
2022-12-22T09:36:45.796Z,4.30
2022-12-22T09:39:14.227Z,4.13
2022-12-22T09:41:51.730Z,7.03
2022-12-22T09:44:40.740Z,4.63
2022-12-22T09:47:37.716Z,4.32
2022-12-22T09:50:08.806Z,5.93
2022-12-22T09:52:35.772Z,4.72
2022-12-22T09:55:06.115Z,4.22
2022-12-22T09:57:33.487Z,5.15
2022-12-22T10:00:30.188Z,4.88
2022-12-22T10:03:29.819Z,5.22
2022-12-22T10:06:12.195Z,9.25
2022-12-22T10:08:40.843Z,6.90
2022-12-22T10:13:35.079Z,6.15
2022-12-22T10:16:02.085Z,6.35
2022-12-22T10:18:29.940Z,6.30
2022-12-22T10:21:14.875Z,6.82
2022-12-22T10:23:45.781Z,7.72
2022-12-22T10:26:31.701Z,8.23
2022-12-22T10:29:12.654Z,9.20
2022-12-22T10:32:02.019Z,8.23
2022-12-22T10:34:29.801Z,7.85
2022-12-22T10:37:06.241Z,8.70
2022-12-22T10:39:36.542Z,13.32
2022-12-22T10:42:16.476Z,10.32
2022-12-22T10:44:49.757Z,11.02
2022-12-22T10:47:24.541Z,13.63
2022-12-22T10:52:30.502Z,9.38
2022-12-22T10:55:21.852Z,9.48
2022-12-22T10:57:49.902Z,10.18
2022-12-22T11:00:38.529Z,8.45
2022-12-22T11:03:08.058Z,8.80
2022-12-22T11:05:35.183Z,10.05
2022-12-22T11:08:18.605Z,11.90
2022-12-22T11:11:01.071Z,11.20
2022-12-22T11:14:06.672Z,11.73
2022-12-22T11:16:50.958Z,9.93
2022-12-22T11:19:37.522Z,12.38
2022-12-22T11:22:28.465Z,11.15
2022-12-22T11:25:24.513Z,10.15
2022-12-22T11:28:10.109Z,10.70
2022-12-22T11:30:52.433Z,14.40
2022-12-22T11:33:23.611Z,13.07
2022-12-22T11:35:59.116Z,11.40
2022-12-22T11:38:34.870Z,14.75
2022-12-22T11:41:28.236Z,13.77
2022-12-22T11:43:55.346Z,13.93
2022-12-22T11:46:42.012Z,14.60
2022-12-22T11:49:37.820Z,13.93
2022-12-22T11:52:55.424Z,16.60
2022-12-22T11:55:30.601Z,15.55
2022-12-22T11:58:28.612Z,14.73
2022-12-22T12:01:16.334Z,17.02
2022-12-22T12:03:59.126Z,16.35
2022-12-22T12:06:44.300Z,18.30
2022-12-22T12:09:19.999Z,15.45
2022-12-22T12:12:04.580Z,17.27
2022-12-22T12:14:44.404Z,15.45
2022-12-22T12:17:40.502Z,15.95
2022-12-22T12:20:13.655Z,15.73
2022-12-22T12:23:01.572Z,14.73
2022-12-22T12:25:44.199Z,15.35
2022-12-22T12:28:20.717Z,15.75
2022-12-22T12:31:00.096Z,16.05
2022-12-22T12:33:36.485Z,16.08
2022-12-22T12:36:20.652Z,15.98
2022-12-22T12:39:08.325Z,17.45
2022-12-22T12:44:18.101Z,17.80
2022-12-22T12:46:51.414Z,17.83
2022-12-22T12:49:36.983Z,17.58
2022-12-22T12:52:08.911Z,16.10
2022-12-22T12:54:40.850Z,19.60
2022-12-22T12:57:07.765Z,20.90
2022-12-22T12:59:40.765Z,19.00
2022-12-22T13:02:39.836Z,20.33
2022-12-22T13:05:12.875Z,19.70
2022-12-22T13:08:06.416Z,23.05
2022-12-22T13:10:55.189Z,18.40
2022-12-22T13:13:22.142Z,21.02
2022-12-22T13:16:00.320Z,20.42
2022-12-22T13:18:30.170Z,23.38
2022-12-22T13:21:50.248Z,23.35
2022-12-22T13:26:45.438Z,22.58
2022-12-22T13:29:29.885Z,22.15
2022-12-22T13:32:05.182Z,19.75
2022-12-22T13:35:20.716Z,16.65
2022-12-22T13:37:41.337Z,18.75
2022-12-22T13:40:37.931Z,17.40
2022-12-22T13:43:12.656Z,16.40
2022-12-22T13:45:42.739Z,16.17
2022-12-22T13:48:35.924Z,20.20
2022-12-22T13:51:22.644Z,19.23
2022-12-22T13:54:11.568Z,19.02
2022-12-22T13:56:42.417Z,17.95
2022-12-22T13:59:27.473Z,17.85
2022-12-22T14:02:25.285Z,18.58
2022-12-22T14:05:11.221Z,17.98
2022-12-22T14:07:38.521Z,18.35
2022-12-22T14:10:06.439Z,15.90
2022-12-22T14:12:42.345Z,19.35
2022-12-22T14:15:16.962Z,20.90
2022-12-22T14:17:52.090Z,22.17
2022-12-22T14:20:29.198Z,23.52
2022-12-22T14:23:02.151Z,27.00
2022-12-22T14:25:40.671Z,27.33
2022-12-22T14:28:29.468Z,30.52
2022-12-22T14:30:59.051Z,28.65
2022-12-22T14:33:28.123Z,29.00
2022-12-22T14:36:18.677Z,29.35
2022-12-22T14:38:48.370Z,33.17
2022-12-22T14:41:42.107Z,28.45
2022-12-22T14:44:35.553Z,30.63
2022-12-22T14:47:17.897Z,31.75
2022-12-22T14:49:50.098Z,29.50
2022-12-22T14:52:33.292Z,33.28
2022-12-22T14:55:02.422Z,32.38
2022-12-22T14:57:38.032Z,31.95
2022-12-22T15:00:28.510Z,29.83
2022-12-22T15:03:04.914Z,32.88
2022-12-22T15:05:39.209Z,32.67
2022-12-22T15:08:09.239Z,35.35
2022-12-22T15:10:44.861Z,37.67
2022-12-22T15:13:18.937Z,35.20
2022-12-22T15:15:46.022Z,40.20
2022-12-22T15:18:15.270Z,45.92
2022-12-22T15:20:42.370Z,44.92
2022-12-22T15:23:14.785Z,41.03
2022-12-22T15:25:41.833Z,43.45
2022-12-22T15:28:09.177Z,43.03
2022-12-22T15:30:36.576Z,44.78
2022-12-22T15:33:04.099Z,43.10
2022-12-22T15:35:34.627Z,40.92
2022-12-22T15:38:02.203Z,43.28
2022-12-22T15:40:29.223Z,50.15
2022-12-22T15:42:56.154Z,42.90
2022-12-22T15:45:23.541Z,42.10
2022-12-22T15:47:53.381Z,42.33
2022-12-22T15:50:25.571Z,41.35
2022-12-22T15:52:56.467Z,35.00
2022-12-22T15:55:24.751Z,36.35
2022-12-22T15:57:54.690Z,30.25
2022-12-22T16:00:22.456Z,27.92
2022-12-22T16:02:49.747Z,26.48
2022-12-22T16:05:17.711Z,26.63
2022-12-22T16:07:45.512Z,20.80
2022-12-22T16:10:28.239Z,24.35
2022-12-22T16:13:00.530Z,22.73
2022-12-22T16:15:35.307Z,23.25
2022-12-22T16:18:03.002Z,24.88
2022-12-22T16:20:37.797Z,26.03
2022-12-22T16:23:07.137Z,24.92
2022-12-22T16:25:37.418Z,25.95
2022-12-22T16:28:06.250Z,27.65
2022-12-22T16:30:34.229Z,28.38
2022-12-22T16:33:01.449Z,31.25
2022-12-22T16:35:30.520Z,27.92
2022-12-22T16:37:59.855Z,26.60
2022-12-22T16:40:27.721Z,29.00
2022-12-22T16:45:44.924Z,29.73
2022-12-22T16:48:43.231Z,31.33
2022-12-22T16:51:34.318Z,32.40
2022-12-22T16:54:02.367Z,30.85
2022-12-22T16:56:31.343Z,33.47
2022-12-22T16:58:58.859Z,30.23
2022-12-22T17:01:51.691Z,31.30
2022-12-22T17:04:30.475Z,33.08
2022-12-22T17:07:00.978Z,31.63
2022-12-22T17:09:55.460Z,27.92
2022-12-22T17:12:27.501Z,29.80
2022-12-22T17:14:56.176Z,31.92
2022-12-22T17:17:28.864Z,31.83
2022-12-22T17:19:59.043Z,29.90
2022-12-22T17:22:32.471Z,30.17
2022-12-22T17:25:05.646Z,29.60
2022-12-22T17:27:34.245Z,28.73
2022-12-22T17:32:32.165Z,30.75
2022-12-22T17:34:59.111Z,32.13
2022-12-22T17:37:26.416Z,32.50
2022-12-22T17:39:58.959Z,29.23
2022-12-22T17:42:26.238Z,33.28
2022-12-22T17:44:53.567Z,33.67
2022-12-22T17:47:30.460Z,31.45
2022-12-22T17:49:58.733Z,29.00
2022-12-22T17:52:28.050Z,30.30
2022-12-22T17:54:55.328Z,28.73
2022-12-22T17:57:32.761Z,28.42
2022-12-22T18:00:00.578Z,26.95
2022-12-22T18:02:27.954Z,24.73
2022-12-22T18:04:55.265Z,23.80
2022-12-22T18:07:24.522Z,22.60
2022-12-22T18:09:57.321Z,23.88
2022-12-22T18:12:27.112Z,23.20
2022-12-22T18:14:54.175Z,23.05
2022-12-22T18:17:31.589Z,17.08
2022-12-22T18:20:02.309Z,18.77
2022-12-22T18:22:29.960Z,17.27
2022-12-22T18:24:57.498Z,16.87
2022-12-22T18:27:24.769Z,17.23
2022-12-22T18:29:51.987Z,16.70
2022-12-22T18:32:27.153Z,14.60
2022-12-22T18:34:54.847Z,14.90
2022-12-22T18:37:21.901Z,14.43
2022-12-22T18:39:48.915Z,14.43
2022-12-22T18:42:25.077Z,12.95
2022-12-22T18:44:52.125Z,15.45
2022-12-22T18:47:19.524Z,16.25
2022-12-22T18:49:46.875Z,15.80
2022-12-22T18:52:22.447Z,14.23
2022-12-22T18:54:49.840Z,14.13
2022-12-22T18:57:19.516Z,13.15
2022-12-22T18:59:48.194Z,16.80
2022-12-22T19:02:28.284Z,13.98
2022-12-22T19:04:56.474Z,15.50
2022-12-22T19:07:25.506Z,14.82
2022-12-22T19:09:52.565Z,13.90
2022-12-22T19:12:23.259Z,13.73
2022-12-22T19:14:54.074Z,18.83
2022-12-22T19:17:24.774Z,16.80
2022-12-22T19:19:51.749Z,16.08
2022-12-22T19:22:18.689Z,16.33
2022-12-22T19:24:46.460Z,17.02
2022-12-22T19:27:26.525Z,14.20
2022-12-22T19:30:02.935Z,16.55
2022-12-22T19:32:41.997Z,15.65
2022-12-22T19:37:40.086Z,17.10
2022-12-22T19:40:07.699Z,17.33
2022-12-22T19:42:35.876Z,16.97
2022-12-22T19:45:10.288Z,17.00
2022-12-22T19:47:38.612Z,19.60
2022-12-22T19:50:14.922Z,18.20
2022-12-22T19:52:41.914Z,20.35
2022-12-22T19:55:09.248Z,22.25
2022-12-22T19:57:41.264Z,19.48
2022-12-22T20:00:28.832Z,21.75
2022-12-22T20:02:57.473Z,20.88
2022-12-22T20:05:28.883Z,22.85
2022-12-22T20:07:59.390Z,19.88
2022-12-22T20:10:28.962Z,20.80
2022-12-22T20:13:00.069Z,19.50
2022-12-22T20:15:36.105Z,18.88
2022-12-22T20:18:11.278Z,17.67
2022-12-22T20:20:39.029Z,17.60
2022-12-22T20:23:16.411Z,18.20
2022-12-22T20:25:50.641Z,19.55
2022-12-22T20:28:20.908Z,19.75
2022-12-22T20:30:48.312Z,22.88
2022-12-22T20:33:17.384Z,20.58
2022-12-22T20:35:46.248Z,19.77
2022-12-22T20:38:19.695Z,20.65
2022-12-22T20:40:49.153Z,16.15
2022-12-22T20:43:24.189Z,17.48
2022-12-22T20:45:53.548Z,15.77
2022-12-22T20:48:43.875Z,11.98
2022-12-22T20:51:15.427Z,13.70
2022-12-22T20:53:44.171Z,14.43
2022-12-22T20:56:25.923Z,14.70
2022-12-22T20:58:53.288Z,12.65
2022-12-22T21:01:21.721Z,15.60
2022-12-22T21:03:48.956Z,14.77
2022-12-22T21:06:28.993Z,12.75
2022-12-22T21:08:58.318Z,14.82
2022-12-22T21:11:25.615Z,14.25
2022-12-22T21:13:52.721Z,13.13
2022-12-22T21:16:26.055Z,11.90
2022-12-22T21:18:54.340Z,12.57
2022-12-22T21:21:22.374Z,11.88
2022-12-22T21:23:50.572Z,12.55
2022-12-22T21:26:22.044Z,12.63
2022-12-22T21:28:49.487Z,12.45
2022-12-22T21:31:16.691Z,13.95
2022-12-22T21:33:44.031Z,12.80
2022-12-22T21:36:31.315Z,12.48
2022-12-22T21:39:01.837Z,15.77
2022-12-22T21:41:47.324Z,15.25
2022-12-22T21:44:14.404Z,16.40
2022-12-22T21:46:45.077Z,18.35
2022-12-22T21:49:23.501Z,17.92
2022-12-22T21:54:20.400Z,19.35
2022-12-22T21:56:48.191Z,18.75
2022-12-22T21:59:15.496Z,17.90
2022-12-22T22:01:42.876Z,17.10
2022-12-22T22:04:10.305Z,14.45
2022-12-22T22:06:38.102Z,16.17
2022-12-22T22:09:07.186Z,13.90
2022-12-22T22:11:54.655Z,12.20
2022-12-22T22:14:22.193Z,11.23
2022-12-22T22:16:49.543Z,11.00
2022-12-22T22:19:17.963Z,9.45
2022-12-22T22:21:46.713Z,10.10
2022-12-22T22:24:13.984Z,9.25
2022-12-22T22:26:41.050Z,10.57
2022-12-22T22:29:08.027Z,10.85
2022-12-22T22:31:35.103Z,10.07
2022-12-22T22:34:02.162Z,9.48
2022-12-22T22:36:29.205Z,9.98
2022-12-22T22:38:56.327Z,10.43
2022-12-22T22:41:23.362Z,9.55
2022-12-22T22:43:54.298Z,11.40
2022-12-22T22:46:21.304Z,11.15
2022-12-22T22:48:48.577Z,10.43
2022-12-22T22:51:15.783Z,10.70
2022-12-22T22:53:42.793Z,10.50
2022-12-22T22:56:09.838Z,11.98
2022-12-22T22:58:36.796Z,9.90
2022-12-22T23:01:09.663Z,10.95
2022-12-22T23:03:40.397Z,14.68
2022-12-22T23:06:10.545Z,19.27
2022-12-22T23:08:37.639Z,18.10
2022-12-22T23:11:05.871Z,14.13
2022-12-22T23:13:33.091Z,15.05
2022-12-22T23:16:04.114Z,14.15
2022-12-22T23:18:32.144Z,16.90
2022-12-22T23:21:01.307Z,19.42
2022-12-22T23:23:29.975Z,19.73
2022-12-22T23:25:57.249Z,16.55
2022-12-22T23:28:27.180Z,15.23
2022-12-22T23:30:54.409Z,15.10
2022-12-22T23:33:22.054Z,15.93
2022-12-22T23:35:50.363Z,16.25
2022-12-22T23:38:20.636Z,14.00
2022-12-22T23:40:52.938Z,13.48
2022-12-22T23:43:21.790Z,14.68
2022-12-22T23:45:48.856Z,15.48
2022-12-22T23:48:16.076Z,12.48
2022-12-22T23:50:46.482Z,10.52
2022-12-22T23:53:13.927Z,9.23
2022-12-22T23:55:47.961Z,6.75
2022-12-22T23:58:15.627Z,6.35
